Time,TemperatureF,DewpointF,PressureIn,WindDirection,WindDirectionDegrees,WindSpeedMPH,WindSpeedGustMPH,Humidity,HourlyPrecipIn,Conditions,Clouds,dailyrainin,SoftwareType,DateUTC
2013-04-03 00:00:00,60.7,42.0,29.77,ENE,69,5.0,-999.0,51,-99.99,,,0.00,weatherlink.com 1.10,2013-04-02 21:00:00,
2013-04-03 00:15:00,60.2,42.0,29.75,NE,45,3.0,-999.0,52,-99.99,,,0.00,weatherlink.com 1.10,2013-04-02 21:15:00,
2013-04-03 00:30:00,59.8,42.0,29.75,NE,55,6.0,-999.0,53,-99.99,,,0.00,weatherlink.com 1.10,2013-04-02 21:30:00,
2013-04-03 00:45:00,60.1,43.0,29.73,NE,44,10.0,-999.0,54,-99.99,,,0.00,weatherlink.com 1.10,2013-04-02 21:45:00,
2013-04-03 01:00:00,60.2,43.0,29.71,East,85,5.0,-999.0,54,-99.99,,,0.00,weatherlink.com 1.10,2013-04-02 22:00:00,
2013-04-03 01:15:00,61.0,44.0,29.70,ESE,114,5.0,-999.0,54,-99.99,,,0.00,weatherlink.com 1.10,2013-04-02 22:15:00,
2013-04-03 01:30:00,61.0,44.0,29.71,East,86,2.0,-999.0,53,-99.99,,,0.00,weatherlink.com 1.10,2013-04-02 22:30:00,
2013-04-03 01:45:00,60.7,43.0,29.71,ENE,72,3.0,-999.0,53,-99.99,,,0.00,weatherlink.com 1.10,2013-04-02 22:45:00,
2013-04-03 02:00:00,60.5,44.0,29.71,East,82,7.0,-999.0,54,-99.99,,,0.00,weatherlink.com 1.10,2013-04-02 23:00:00,
2013-04-03 02:15:00,60.4,43.0,29.70,ESE,102,4.0,-999.0,54,-99.99,,,0.00,weatherlink.com 1.10,2013-04-02 23:15:00,
2013-04-03 02:45:00,61.0,44.0,29.70,ENE,68,3.0,-999.0,54,-99.99,,,0.00,weatherlink.com 1.10,2013-04-02 23:45:00,
2013-04-03 03:01:00,61.0,44.0,29.69,ENE,66,3.0,-999.0,54,-99.99,,,0.00,weatherlink.com 1.10,2013-04-03 00:01:00,
2013-04-03 03:16:00,61.3,44.0,29.69,ENE,72,5.0,-999.0,53,-99.99,,,0.00,weatherlink.com 1.10,2013-04-03 00:16:00,
2013-04-03 03:31:00,61.3,44.0,29.68,East,96,3.0,-999.0,53,-99.99,,,0.00,weatherlink.com 1.10,2013-04-03 00:31:00,
2013-04-03 04:31:00,61.0,44.0,29.66,East,93,0.0,-999.0,54,-99.99,,,0.00,weatherlink.com 1.10,2013-04-03 01:31:00,
2013-04-03 05:01:00,60.7,44.0,29.65,NNE,25,3.0,-999.0,55,-99.99,,,0.00,weatherlink.com 1.10,2013-04-03 02:01:00,
2013-04-03 05:16:00,60.7,44.0,29.65,ENE,64,5.0,-999.0,55,-99.99,,,0.00,weatherlink.com 1.10,2013-04-03 02:16:00,
2013-04-03 05:31:00,60.5,45.0,29.65,NE,34,1.0,-999.0,56,-99.99,,,0.00,weatherlink.com 1.10,2013-04-03 02:31:00,
2013-04-03 05:46:00,60.4,45.0,29.64,ENE,58,3.0,-999.0,57,-99.99,,,0.00,weatherlink.com 1.10,2013-04-03 02:46:00,
2013-04-03 06:01:00,60.4,45.0,29.63,ENE,68,5.0,-999.0,57,-99.99,,,0.00,weatherlink.com 1.10,2013-04-03 03:01:00,
2013-04-03 06:17:00,59.6,45.0,29.62,East,86,0.0,-999.0,60,-99.99,,,0.00,weatherlink.com 1.10,2013-04-03 03:17:00,
2013-04-03 06:31:00,59.6,45.0,29.61,ENE,66,5.0,-999.0,59,-99.99,,,0.00,weatherlink.com 1.10,2013-04-03 03:31:00,
2013-04-03 06:47:00,59.9,45.0,29.61,East,86,0.0,-999.0,58,-99.99,,,0.00,weatherlink.com 1.10,2013-04-03 03:47:00,
2013-04-03 07:02:00,60.2,45.0,29.61,SE,126,4.0,-999.0,57,-99.99,,,0.00,weatherlink.com 1.10,2013-04-03 04:02:00,
2013-04-03 07:17:00,61.5,45.0,29.61,SE,130,8.0,-999.0,56,-99.99,,,0.00,weatherlink.com 1.10,2013-04-03 04:17:00,
2013-04-03 07:32:00,62.9,45.0,29.61,SE,124,6.0,-999.0,53,-99.99,,,0.00,weatherlink.com 1.10,2013-04-03 04:32:00,
2013-04-03 07:47:00,62.9,45.0,29.61,East,99,5.0,-999.0,52,-99.99,,,0.00,weatherlink.com 1.10,2013-04-03 04:47:00,
2013-04-03 08:02:00,62.9,45.0,29.60,ESE,121,5.0,-999.0,52,-99.99,,,0.00,weatherlink.com 1.10,2013-04-03 05:02:00,
2013-04-03 08:17:00,63.4,45.0,29.60,SE,133,7.0,-999.0,51,-99.99,,,0.00,weatherlink.com 1.10,2013-04-03 05:17:00,
2013-04-03 08:32:00,63.7,46.0,29.60,ESE,102,1.0,-999.0,52,-99.99,,,0.00,weatherlink.com 1.10,2013-04-03 05:32:00,
2013-04-03 08:47:00,64.0,46.0,29.60,SE,133,3.0,-999.0,52,-99.99,,,0.00,weatherlink.com 1.10,2013-04-03 05:47:00,
2013-04-03 09:02:00,64.5,46.0,29.60,SE,128,8.0,-999.0,51,-99.99,,,0.00,weatherlink.com 1.10,2013-04-03 06:02:00,
2013-04-03 09:17:00,64.7,46.0,29.60,ESE,117,5.0,-999.0,51,-99.99,,,0.00,weatherlink.com 1.10,2013-04-03 06:17:00,
2013-04-03 09:32:00,65.5,46.0,29.60,SE,137,3.0,-999.0,50,-99.99,,,0.00,weatherlink.com 1.10,2013-04-03 06:32:00,
2013-04-03 09:47:00,66.0,47.0,29.60,ESE,106,1.0,-999.0,51,-99.99,,,0.00,weatherlink.com 1.10,2013-04-03 06:47:00,
2013-04-03 10:03:00,65.6,47.0,29.60,SE,126,2.0,-999.0,52,-99.99,,,0.00,weatherlink.com 1.10,2013-04-03 07:03:00,
2013-04-03 10:18:00,66.3,47.0,29.60,SE,137,1.0,-999.0,50,-99.99,,,0.00,weatherlink.com 1.10,2013-04-03 07:18:00,
2013-04-03 10:33:00,67.6,48.0,29.60,SE,133,5.0,-999.0,49,-99.99,,,0.00,weatherlink.com 1.10,2013-04-03 07:33:00,
2013-04-03 10:48:00,69.1,48.0,29.59,SSE,158,0.0,-999.0,47,-99.99,,,0.00,weatherlink.com 1.10,2013-04-03 07:48:00,
2013-04-03 11:03:00,69.9,48.0,29.59,SSE,154,5.0,-999.0,45,-99.99,,,0.00,weatherlink.com 1.10,2013-04-03 08:03:00,
2013-04-03 11:18:00,70.6,48.0,29.58,SSE,152,5.0,-999.0,44,-99.99,,,0.00,weatherlink.com 1.10,2013-04-03 08:18:00,
2013-04-03 11:33:00,71.1,47.0,29.58,SSE,157,4.0,-999.0,43,-99.99,,,0.00,weatherlink.com 1.10,2013-04-03 08:33:00,
2013-04-03 11:48:00,71.8,47.0,29.58,SE,145,5.0,-999.0,42,-99.99,,,0.00,weatherlink.com 1.10,2013-04-03 08:48:00,
2013-04-03 12:03:00,72.3,48.0,29.59,SSE,165,0.0,-999.0,42,-99.99,,,0.00,weatherlink.com 1.10,2013-04-03 09:03:00,
2013-04-03 12:18:00,72.5,48.0,29.59,SE,137,7.0,-999.0,42,-99.99,,,0.00,weatherlink.com 1.10,2013-04-03 09:18:00,
2013-04-03 12:33:00,72.1,48.0,29.59,SE,145,2.0,-999.0,43,-99.99,,,0.00,weatherlink.com 1.10,2013-04-03 09:33:00,
2013-04-03 12:48:00,71.8,49.0,29.59,SSE,161,5.0,-999.0,44,-99.99,,,0.00,weatherlink.com 1.10,2013-04-03 09:48:00,
2013-04-03 13:03:00,71.8,48.0,29.59,SSE,150,2.0,-999.0,43,-99.99,,,0.00,weatherlink.com 1.10,2013-04-03 10:03:00,
2013-04-03 13:18:00,71.3,49.0,29.59,South,189,2.0,-999.0,45,-99.99,,,0.00,weatherlink.com 1.10,2013-04-03 10:18:00,
2013-04-03 13:33:00,70.8,49.0,29.59,SSW,202,2.0,-999.0,46,-99.99,,,0.00,weatherlink.com 1.10,2013-04-03 10:33:00,
2013-04-03 13:48:00,69.9,50.0,29.60,SSE,150,1.0,-999.0,49,-99.99,,,0.00,weatherlink.com 1.10,2013-04-03 10:48:00,
2013-04-03 14:03:00,68.4,50.0,29.59,SSW,213,6.0,-999.0,52,-99.99,,,0.00,weatherlink.com 1.10,2013-04-03 11:03:00,
2013-04-03 14:18:00,67.4,51.0,29.58,WNW,291,1.0,-999.0,56,-99.99,,,0.00,weatherlink.com 1.10,2013-04-03 11:18:00,
2013-04-03 14:33:00,66.9,53.0,29.58,SW,224,1.0,-999.0,62,-99.99,,,0.00,weatherlink.com 1.10,2013-04-03 11:33:00,
2013-04-03 14:48:00,66.4,55.0,29.57,SSW,206,0.0,-999.0,66,-99.99,,,0.00,weatherlink.com 1.10,2013-04-03 11:48:00,
2013-04-03 15:03:00,66.6,56.0,29.55,SSW,206,0.0,-999.0,68,-99.99,,,0.00,weatherlink.com 1.10,2013-04-03 12:03:00,
2013-04-03 15:18:00,65.6,55.0,29.55,SE,126,0.0,-999.0,69,-99.99,,,0.00,weatherlink.com 1.10,2013-04-03 12:18:00,
2013-04-03 15:33:00,65.2,55.0,29.55,SE,130,0.0,-999.0,70,-99.99,,,0.00,weatherlink.com 1.10,2013-04-03 12:33:00,
2013-04-03 15:48:00,66.0,55.0,29.55,SE,126,5.0,-999.0,68,-99.99,,,0.00,weatherlink.com 1.10,2013-04-03 12:48:00,
2013-04-03 16:03:00,66.3,55.0,29.53,ENE,58,0.0,-999.0,68,-99.99,,,0.00,weatherlink.com 1.10,2013-04-03 13:03:00,
2013-04-03 16:18:00,66.0,54.0,29.53,ENE,68,5.0,-999.0,66,-99.99,,,0.00,weatherlink.com 1.10,2013-04-03 13:18:00,
2013-04-03 16:33:00,66.3,55.0,29.52,ENE,71,5.0,-999.0,67,-99.99,,,0.00,weatherlink.com 1.10,2013-04-03 13:33:00,
2013-04-03 16:48:00,67.1,56.0,29.54,SSW,213,3.0,-999.0,68,-99.99,,,0.00,weatherlink.com 1.10,2013-04-03 13:48:00,
2013-04-03 17:03:00,64.7,56.0,29.57,WNW,289,12.0,-999.0,74,-99.99,,,0.01,weatherlink.com 1.10,2013-04-03 14:03:00,
2013-04-03 17:18:00,62.0,56.0,29.57,WNW,284,11.0,-999.0,81,-99.99,,,0.01,weatherlink.com 1.10,2013-04-03 14:18:00,
2013-04-03 17:33:00,61.2,57.0,29.57,WNW,282,5.0,-999.0,85,-99.99,,,0.01,weatherlink.com 1.10,2013-04-03 14:33:00,
2013-04-03 17:48:00,60.4,57.0,29.57,West,274,7.0,-999.0,88,-99.99,,,0.01,weatherlink.com 1.10,2013-04-03 14:48:00,
2013-04-03 18:03:00,59.6,57.0,29.59,WNW,292,8.0,-999.0,92,-99.99,,,0.02,weatherlink.com 1.10,2013-04-03 15:03:00,
2013-04-03 18:18:00,58.9,58.0,29.58,West,277,3.0,-999.0,95,-99.99,,,0.02,weatherlink.com 1.10,2013-04-03 15:18:00,
2013-04-03 18:33:00,58.6,58.0,29.59,ENE,72,0.0,-999.0,99,-99.99,,,0.04,weatherlink.com 1.10,2013-04-03 15:33:00,
2013-04-03 18:49:00,58.3,58.0,29.59,ENE,72,0.0,-999.0,100,-99.99,,,0.04,weatherlink.com 1.10,2013-04-03 15:49:00,
2013-04-03 19:04:00,58.4,58.0,29.60,West,265,2.0,-999.0,100,-99.99,,,0.04,weatherlink.com 1.10,2013-04-03 16:04:00,
2013-04-03 19:34:00,57.5,58.0,29.60,WNW,287,14.0,-999.0,100,-99.99,,,0.04,weatherlink.com 1.10,2013-04-03 16:34:00,
2013-04-03 19:49:00,56.7,57.0,29.60,NW,325,0.0,-999.0,100,-99.99,,,0.04,weatherlink.com 1.10,2013-04-03 16:49:00,
2013-04-03 20:04:00,56.6,57.0,29.60,NW,311,5.0,-999.0,100,-99.99,,,0.06,weatherlink.com 1.10,2013-04-03 17:04:00,
2013-04-03 20:19:00,56.3,56.0,29.60,SW,229,3.0,-999.0,100,-99.99,,,0.06,weatherlink.com 1.10,2013-04-03 17:19:00,
2013-04-03 20:34:00,56.6,57.0,29.61,SW,220,0.0,-999.0,100,-99.99,,,0.09,weatherlink.com 1.10,2013-04-03 17:34:00,
2013-04-03 20:49:00,56.6,57.0,29.61,SE,145,0.0,-999.0,100,-99.99,,,0.09,weatherlink.com 1.10,2013-04-03 17:49:00,
2013-04-03 21:04:00,56.6,57.0,29.61,East,99,0.0,-999.0,100,-99.99,,,0.09,weatherlink.com 1.10,2013-04-03 18:04:00,
2013-04-03 21:19:00,56.7,57.0,29.61,SW,234,0.0,-999.0,100,-99.99,,,0.09,weatherlink.com 1.10,2013-04-03 18:19:00,
2013-04-03 21:34:00,56.2,56.0,29.60,SSE,168,0.0,-999.0,100,-99.99,,,0.09,weatherlink.com 1.10,2013-04-03 18:34:00,
2013-04-03 21:49:00,55.9,56.0,29.60,South,171,0.0,-999.0,100,-99.99,,,0.09,weatherlink.com 1.10,2013-04-03 18:49:00,
2013-04-03 22:20:00,56.0,56.0,29.60,SSW,203,0.0,-999.0,100,-99.99,,,0.09,weatherlink.com 1.10,2013-04-03 19:20:00,
2013-04-03 22:35:00,56.0,56.0,29.60,SSW,196,3.0,-999.0,100,-99.99,,,0.09,weatherlink.com 1.10,2013-04-03 19:35:00,
2013-04-03 22:50:00,56.3,56.0,29.61,SSW,205,1.0,-999.0,100,-99.99,,,0.09,weatherlink.com 1.10,2013-04-03 19:50:00,
2013-04-03 23:05:00,56.5,57.0,29.61,SW,229,0.0,-999.0,100,-99.99,,,0.12,weatherlink.com 1.10,2013-04-03 20:05:00,
2013-04-03 23:20:00,56.2,56.0,29.61,South,191,0.0,-999.0,100,-99.99,,,0.21,weatherlink.com 1.10,2013-04-03 20:20:00,
2013-04-03 23:35:00,55.9,56.0,29.61,SSE,147,1.0,-999.0,100,-99.99,,,0.27,weatherlink.com 1.10,2013-04-03 20:35:00,
2013-04-03 23:50:00,55.6,56.0,29.61,SSE,168,2.0,-999.0,100,-99.99,,,0.00,weatherlink.com 1.10,2013-04-03 20:50:00,